sensor_id;sensor_type;location;lat;lon;timestamp;P1;durP1;ratioP1;P2;durP2;ratioP2
13238;SDS011;6686;51.292;4.166;2022-10-16T00:02:38;4.57;;;3.00;;
13238;SDS011;6686;51.292;4.166;2022-10-16T00:05:24;2.43;;;2.23;;
13238;SDS011;6686;51.292;4.166;2022-10-16T00:08:10;2.73;;;2.17;;
13238;SDS011;6686;51.292;4.166;2022-10-16T00:11:03;4.47;;;2.47;;
13238;SDS011;6686;51.292;4.166;2022-10-16T00:13:49;3.37;;;2.17;;
13238;SDS011;6686;51.292;4.166;2022-10-16T00:16:34;2.23;;;2.03;;
13238;SDS011;6686;51.292;4.166;2022-10-16T00:19:20;4.70;;;2.43;;
13238;SDS011;6686;51.292;4.166;2022-10-16T00:22:06;2.90;;;2.30;;
13238;SDS011;6686;51.292;4.166;2022-10-16T00:24:52;4.00;;;2.10;;
13238;SDS011;6686;51.292;4.166;2022-10-16T00:27:38;2.30;;;2.10;;
13238;SDS011;6686;51.292;4.166;2022-10-16T00:30:24;4.13;;;2.00;;
13238;SDS011;6686;51.292;4.166;2022-10-16T00:35:48;3.62;;;2.20;;
13238;SDS011;6686;51.292;4.166;2022-10-16T00:38:33;3.97;;;2.17;;
13238;SDS011;6686;51.292;4.166;2022-10-16T00:41:20;2.67;;;2.30;;
13238;SDS011;6686;51.292;4.166;2022-10-16T00:44:41;1.80;;;1.70;;
13238;SDS011;6686;51.292;4.166;2022-10-16T00:47:15;4.37;;;2.27;;
13238;SDS011;6686;51.292;4.166;2022-10-16T00:50:07;5.25;;;2.30;;
13238;SDS011;6686;51.292;4.166;2022-10-16T00:52:53;2.20;;;1.77;;
13238;SDS011;6686;51.292;4.166;2022-10-16T00:55:39;2.20;;;2.00;;
13238;SDS011;6686;51.292;4.166;2022-10-16T00:58:25;2.57;;;1.90;;
13238;SDS011;6686;51.292;4.166;2022-10-16T01:01:11;3.97;;;1.80;;
13238;SDS011;6686;51.292;4.166;2022-10-16T01:03:56;2.33;;;1.70;;
13238;SDS011;6686;51.292;4.166;2022-10-16T01:13:01;2.40;;;1.77;;
13238;SDS011;6686;51.292;4.166;2022-10-16T01:21:38;2.33;;;1.80;;
13238;SDS011;6686;51.292;4.166;2022-10-16T01:24:28;2.03;;;1.80;;
13238;SDS011;6686;51.292;4.166;2022-10-16T01:27:26;4.63;;;2.00;;
13238;SDS011;6686;51.292;4.166;2022-10-16T01:30:23;3.70;;;1.93;;
13238;SDS011;6686;51.292;4.166;2022-10-16T01:33:20;3.37;;;1.93;;
13238;SDS011;6686;51.292;4.166;2022-10-16T01:36:37;2.03;;;1.83;;
13238;SDS011;6686;51.292;4.166;2022-10-16T01:39:00;2.40;;;2.20;;
13238;SDS011;6686;51.292;4.166;2022-10-16T01:41:47;2.33;;;1.98;;
13238;SDS011;6686;51.292;4.166;2022-10-16T01:44:34;3.00;;;2.15;;
13238;SDS011;6686;51.292;4.166;2022-10-16T01:47:22;1.83;;;1.60;;
13238;SDS011;6686;51.292;4.166;2022-10-16T01:50:06;3.10;;;1.70;;
13238;SDS011;6686;51.292;4.166;2022-10-16T01:52:52;3.70;;;1.90;;
13238;SDS011;6686;51.292;4.166;2022-10-16T01:55:39;3.25;;;2.00;;
13238;SDS011;6686;51.292;4.166;2022-10-16T01:58:24;1.87;;;1.70;;
13238;SDS011;6686;51.292;4.166;2022-10-16T02:01:10;2.20;;;1.77;;
13238;SDS011;6686;51.292;4.166;2022-10-16T02:03:56;4.17;;;1.90;;
13238;SDS011;6686;51.292;4.166;2022-10-16T02:06:42;3.27;;;1.80;;
13238;SDS011;6686;51.292;4.166;2022-10-16T02:09:29;2.87;;;1.90;;
13238;SDS011;6686;51.292;4.166;2022-10-16T02:12:15;2.97;;;1.90;;
13238;SDS011;6686;51.292;4.166;2022-10-16T02:15:06;2.27;;;1.73;;
13238;SDS011;6686;51.292;4.166;2022-10-16T02:17:51;2.73;;;1.80;;
13238;SDS011;6686;51.292;4.166;2022-10-16T02:20:40;2.37;;;1.50;;
13238;SDS011;6686;51.292;4.166;2022-10-16T02:23:45;2.83;;;1.70;;
13238;SDS011;6686;51.292;4.166;2022-10-16T02:26:32;2.77;;;1.63;;
13238;SDS011;6686;51.292;4.166;2022-10-16T02:29:17;2.13;;;1.60;;
13238;SDS011;6686;51.292;4.166;2022-10-16T02:32:02;2.40;;;1.70;;
13238;SDS011;6686;51.292;4.166;2022-10-16T02:34:48;2.40;;;1.70;;
13238;SDS011;6686;51.292;4.166;2022-10-16T02:37:34;2.80;;;1.60;;
13238;SDS011;6686;51.292;4.166;2022-10-16T02:40:20;2.63;;;1.60;;
13238;SDS011;6686;51.292;4.166;2022-10-16T02:43:06;2.30;;;2.10;;
13238;SDS011;6686;51.292;4.166;2022-10-16T02:45:52;1.90;;;1.70;;
13238;SDS011;6686;51.292;4.166;2022-10-16T02:48:38;2.17;;;1.67;;
13238;SDS011;6686;51.292;4.166;2022-10-16T02:51:24;3.40;;;1.90;;
13238;SDS011;6686;51.292;4.166;2022-10-16T02:54:10;3.63;;;2.00;;
13238;SDS011;6686;51.292;4.166;2022-10-16T02:56:56;2.03;;;1.70;;
13238;SDS011;6686;51.292;4.166;2022-10-16T02:59:42;3.43;;;1.83;;
13238;SDS011;6686;51.292;4.166;2022-10-16T03:02:28;2.80;;;1.60;;
13238;SDS011;6686;51.292;4.166;2022-10-16T03:05:14;2.00;;;1.80;;
13238;SDS011;6686;51.292;4.166;2022-10-16T03:07:59;3.10;;;1.90;;
13238;SDS011;6686;51.292;4.166;2022-10-16T03:10:45;3.80;;;1.63;;
13238;SDS011;6686;51.292;4.166;2022-10-16T03:13:31;4.10;;;1.73;;
13238;SDS011;6686;51.292;4.166;2022-10-16T03:16:17;2.13;;;1.80;;
13238;SDS011;6686;51.292;4.166;2022-10-16T03:19:02;2.80;;;2.07;;
13238;SDS011;6686;51.292;4.166;2022-10-16T03:21:48;2.07;;;1.83;;
13238;SDS011;6686;51.292;4.166;2022-10-16T03:24:34;4.60;;;1.93;;
13238;SDS011;6686;51.292;4.166;2022-10-16T03:27:20;2.10;;;1.87;;
13238;SDS011;6686;51.292;4.166;2022-10-16T03:30:06;2.53;;;1.83;;
13238;SDS011;6686;51.292;4.166;2022-10-16T03:32:52;2.50;;;1.53;;
13238;SDS011;6686;51.292;4.166;2022-10-16T03:35:38;4.03;;;2.00;;
13238;SDS011;6686;51.292;4.166;2022-10-16T03:38:24;2.60;;;1.87;;
13238;SDS011;6686;51.292;4.166;2022-10-16T03:41:10;4.28;;;2.78;;
13238;SDS011;6686;51.292;4.166;2022-10-16T03:43:55;3.70;;;1.90;;
13238;SDS011;6686;51.292;4.166;2022-10-16T03:46:41;4.00;;;1.97;;
13238;SDS011;6686;51.292;4.166;2022-10-16T03:49:27;3.03;;;2.40;;
13238;SDS011;6686;51.292;4.166;2022-10-16T03:52:13;3.67;;;2.10;;
13238;SDS011;6686;51.292;4.166;2022-10-16T03:54:59;3.47;;;2.23;;
13238;SDS011;6686;51.292;4.166;2022-10-16T03:57:45;4.27;;;2.27;;
13238;SDS011;6686;51.292;4.166;2022-10-16T04:00:31;2.40;;;2.20;;
13238;SDS011;6686;51.292;4.166;2022-10-16T04:03:16;3.70;;;2.20;;
13238;SDS011;6686;51.292;4.166;2022-10-16T04:06:02;2.20;;;2.00;;
13238;SDS011;6686;51.292;4.166;2022-10-16T04:08:48;3.10;;;1.93;;
13238;SDS011;6686;51.292;4.166;2022-10-16T04:11:34;2.23;;;2.03;;
13238;SDS011;6686;51.292;4.166;2022-10-16T04:14:20;5.60;;;2.23;;
13238;SDS011;6686;51.292;4.166;2022-10-16T04:17:06;4.80;;;2.07;;
13238;SDS011;6686;51.292;4.166;2022-10-16T04:19:52;2.67;;;1.90;;
13238;SDS011;6686;51.292;4.166;2022-10-16T04:22:38;6.73;;;2.30;;
13238;SDS011;6686;51.292;4.166;2022-10-16T04:25:24;4.07;;;2.50;;
13238;SDS011;6686;51.292;4.166;2022-10-16T04:28:10;3.40;;;2.23;;
13238;SDS011;6686;51.292;4.166;2022-10-16T04:30:55;5.90;;;2.10;;
13238;SDS011;6686;51.292;4.166;2022-10-16T04:33:44;2.77;;;2.30;;
13238;SDS011;6686;51.292;4.166;2022-10-16T04:36:30;5.07;;;2.20;;
13238;SDS011;6686;51.292;4.166;2022-10-16T04:39:16;3.00;;;2.10;;
13238;SDS011;6686;51.292;4.166;2022-10-16T04:42:02;4.12;;;2.37;;
13238;SDS011;6686;51.292;4.166;2022-10-16T04:44:48;4.27;;;2.40;;
13238;SDS011;6686;51.292;4.166;2022-10-16T04:47:35;3.03;;;2.03;;
13238;SDS011;6686;51.292;4.166;2022-10-16T04:50:20;3.77;;;2.23;;
13238;SDS011;6686;51.292;4.166;2022-10-16T04:53:06;2.53;;;2.30;;
13238;SDS011;6686;51.292;4.166;2022-10-16T04:55:52;3.47;;;2.20;;
13238;SDS011;6686;51.292;4.166;2022-10-16T04:58:38;3.23;;;2.37;;
13238;SDS011;6686;51.292;4.166;2022-10-16T05:01:23;2.50;;;2.07;;
13238;SDS011;6686;51.292;4.166;2022-10-16T05:04:10;3.23;;;2.07;;
13238;SDS011;6686;51.292;4.166;2022-10-16T05:06:55;4.60;;;2.10;;
13238;SDS011;6686;51.292;4.166;2022-10-16T05:09:42;4.77;;;2.10;;
13238;SDS011;6686;51.292;4.166;2022-10-16T05:12:28;4.67;;;2.30;;
13238;SDS011;6686;51.292;4.166;2022-10-16T05:15:14;5.33;;;2.40;;
13238;SDS011;6686;51.292;4.166;2022-10-16T05:18:00;2.40;;;1.87;;
13238;SDS011;6686;51.292;4.166;2022-10-16T05:20:46;4.87;;;2.27;;
13238;SDS011;6686;51.292;4.166;2022-10-16T05:23:32;2.13;;;1.93;;
13238;SDS011;6686;51.292;4.166;2022-10-16T05:26:19;2.60;;;2.17;;
13238;SDS011;6686;51.292;4.166;2022-10-16T05:29:04;2.83;;;1.97;;
13238;SDS011;6686;51.292;4.166;2022-10-16T05:31:54;6.43;;;2.40;;
13238;SDS011;6686;51.292;4.166;2022-10-16T05:34:39;2.97;;;2.10;;
13238;SDS011;6686;51.292;4.166;2022-10-16T05:37:27;3.20;;;2.20;;
13238;SDS011;6686;51.292;4.166;2022-10-16T05:40:12;7.27;;;2.63;;
13238;SDS011;6686;51.292;4.166;2022-10-16T05:42:58;4.90;;;2.47;;
13238;SDS011;6686;51.292;4.166;2022-10-16T05:45:44;3.60;;;2.80;;
13238;SDS011;6686;51.292;4.166;2022-10-16T05:48:30;3.67;;;2.27;;
13238;SDS011;6686;51.292;4.166;2022-10-16T05:51:16;4.17;;;2.37;;
13238;SDS011;6686;51.292;4.166;2022-10-16T05:54:02;5.53;;;2.83;;
13238;SDS011;6686;51.292;4.166;2022-10-16T05:56:47;4.67;;;2.60;;
13238;SDS011;6686;51.292;4.166;2022-10-16T05:59:33;5.27;;;2.47;;
13238;SDS011;6686;51.292;4.166;2022-10-16T06:02:20;5.23;;;2.60;;
13238;SDS011;6686;51.292;4.166;2022-10-16T06:05:06;4.77;;;2.93;;
13238;SDS011;6686;51.292;4.166;2022-10-16T06:07:52;4.07;;;2.20;;
13238;SDS011;6686;51.292;4.166;2022-10-16T06:10:38;8.60;;;2.33;;
13238;SDS011;6686;51.292;4.166;2022-10-16T06:13:23;5.83;;;2.60;;
13238;SDS011;6686;51.292;4.166;2022-10-16T06:16:09;5.53;;;2.50;;
13238;SDS011;6686;51.292;4.166;2022-10-16T06:18:55;4.40;;;2.77;;
13238;SDS011;6686;51.292;4.166;2022-10-16T06:21:41;3.63;;;2.00;;
13238;SDS011;6686;51.292;4.166;2022-10-16T06:24:27;3.03;;;2.50;;
13238;SDS011;6686;51.292;4.166;2022-10-16T06:27:13;5.57;;;2.40;;
13238;SDS011;6686;51.292;4.166;2022-10-16T06:29:59;4.65;;;2.40;;
13238;SDS011;6686;51.292;4.166;2022-10-16T06:32:44;3.87;;;2.47;;
13238;SDS011;6686;51.292;4.166;2022-10-16T06:35:30;5.00;;;2.33;;
13238;SDS011;6686;51.292;4.166;2022-10-16T06:38:16;5.27;;;2.50;;
13238;SDS011;6686;51.292;4.166;2022-10-16T06:41:02;6.53;;;2.20;;
13238;SDS011;6686;51.292;4.166;2022-10-16T06:43:48;4.10;;;2.23;;
13238;SDS011;6686;51.292;4.166;2022-10-16T06:46:34;2.70;;;2.10;;
13238;SDS011;6686;51.292;4.166;2022-10-16T06:49:20;3.57;;;2.20;;
13238;SDS011;6686;51.292;4.166;2022-10-16T06:52:06;6.13;;;2.40;;
13238;SDS011;6686;51.292;4.166;2022-10-16T06:54:52;6.03;;;2.70;;
13238;SDS011;6686;51.292;4.166;2022-10-16T06:57:38;2.33;;;2.03;;
13238;SDS011;6686;51.292;4.166;2022-10-16T07:00:24;5.13;;;2.47;;
13238;SDS011;6686;51.292;4.166;2022-10-16T07:03:09;4.43;;;2.20;;
13238;SDS011;6686;51.292;4.166;2022-10-16T07:05:55;3.17;;;2.27;;
13238;SDS011;6686;51.292;4.166;2022-10-16T07:08:42;2.73;;;2.20;;
13238;SDS011;6686;51.292;4.166;2022-10-16T07:11:27;2.57;;;1.90;;
13238;SDS011;6686;51.292;4.166;2022-10-16T07:14:17;5.20;;;1.97;;
13238;SDS011;6686;51.292;4.166;2022-10-16T07:16:58;2.57;;;1.97;;
13238;SDS011;6686;51.292;4.166;2022-10-16T07:19:44;2.63;;;2.20;;
13238;SDS011;6686;51.292;4.166;2022-10-16T07:22:30;3.77;;;1.80;;
13238;SDS011;6686;51.292;4.166;2022-10-16T07:25:16;5.27;;;2.10;;
13238;SDS011;6686;51.292;4.166;2022-10-16T07:28:02;5.73;;;2.10;;
13238;SDS011;6686;51.292;4.166;2022-10-16T07:30:48;4.47;;;2.13;;
13238;SDS011;6686;51.292;4.166;2022-10-16T07:33:34;3.93;;;2.00;;
13238;SDS011;6686;51.292;4.166;2022-10-16T07:36:20;3.77;;;1.70;;
13238;SDS011;6686;51.292;4.166;2022-10-16T07:39:05;4.87;;;2.00;;
13238;SDS011;6686;51.292;4.166;2022-10-16T07:41:51;2.37;;;1.70;;
13238;SDS011;6686;51.292;4.166;2022-10-16T07:44:37;4.97;;;2.10;;
13238;SDS011;6686;51.292;4.166;2022-10-16T07:47:23;5.83;;;1.83;;
13238;SDS011;6686;51.292;4.166;2022-10-16T07:50:09;4.18;;;2.00;;
13238;SDS011;6686;51.292;4.166;2022-10-16T07:52:55;3.87;;;2.50;;
13238;SDS011;6686;51.292;4.166;2022-10-16T07:55:41;3.72;;;1.92;;
13238;SDS011;6686;51.292;4.166;2022-10-16T07:58:27;2.10;;;1.90;;
13238;SDS011;6686;51.292;4.166;2022-10-16T08:01:13;4.53;;;2.00;;
13238;SDS011;6686;51.292;4.166;2022-10-16T08:03:58;4.50;;;1.90;;
13238;SDS011;6686;51.292;4.166;2022-10-16T08:06:44;4.93;;;2.43;;
13238;SDS011;6686;51.292;4.166;2022-10-16T08:09:30;6.30;;;1.80;;
13238;SDS011;6686;51.292;4.166;2022-10-16T08:12:15;3.40;;;1.90;;
13238;SDS011;6686;51.292;4.166;2022-10-16T08:15:01;2.00;;;1.80;;
13238;SDS011;6686;51.292;4.166;2022-10-16T08:17:57;4.83;;;1.93;;
13238;SDS011;6686;51.292;4.166;2022-10-16T08:20:42;4.80;;;1.90;;
13238;SDS011;6686;51.292;4.166;2022-10-16T08:23:28;5.50;;;2.00;;
13238;SDS011;6686;51.292;4.166;2022-10-16T08:26:14;3.33;;;1.80;;
13238;SDS011;6686;51.292;4.166;2022-10-16T08:29:00;5.67;;;1.97;;
13238;SDS011;6686;51.292;4.166;2022-10-16T08:31:45;6.00;;;1.77;;
13238;SDS011;6686;51.292;4.166;2022-10-16T08:34:31;5.37;;;1.97;;
13238;SDS011;6686;51.292;4.166;2022-10-16T08:37:18;2.70;;;1.60;;
13238;SDS011;6686;51.292;4.166;2022-10-16T08:40:05;3.13;;;2.13;;
13238;SDS011;6686;51.292;4.166;2022-10-16T08:49:01;5.47;;;1.80;;
13238;SDS011;6686;51.292;4.166;2022-10-16T08:51:47;5.20;;;2.03;;
13238;SDS011;6686;51.292;4.166;2022-10-16T08:54:34;3.83;;;1.80;;
13238;SDS011;6686;51.292;4.166;2022-10-16T08:57:20;5.83;;;1.97;;
13238;SDS011;6686;51.292;4.166;2022-10-16T09:00:14;4.50;;;1.90;;
13238;SDS011;6686;51.292;4.166;2022-10-16T09:06:05;5.53;;;2.07;;
13238;SDS011;6686;51.292;4.166;2022-10-16T09:08:57;5.03;;;1.77;;
13238;SDS011;6686;51.292;4.166;2022-10-16T09:11:50;4.60;;;1.90;;
13238;SDS011;6686;51.292;4.166;2022-10-16T09:17:38;4.77;;;1.83;;
13238;SDS011;6686;51.292;4.166;2022-10-16T09:23:17;7.63;;;2.17;;
13238;SDS011;6686;51.292;4.166;2022-10-16T09:26:01;5.20;;;2.07;;
13238;SDS011;6686;51.292;4.166;2022-10-16T09:28:47;8.37;;;2.03;;
13238;SDS011;6686;51.292;4.166;2022-10-16T09:31:35;4.13;;;2.20;;
13238;SDS011;6686;51.292;4.166;2022-10-16T09:37:08;6.35;;;2.28;;
13238;SDS011;6686;51.292;4.166;2022-10-16T09:39:52;7.17;;;2.57;;
13238;SDS011;6686;51.292;4.166;2022-10-16T09:42:37;6.83;;;2.40;;
13238;SDS011;6686;51.292;4.166;2022-10-16T09:45:23;9.13;;;2.50;;
13238;SDS011;6686;51.292;4.166;2022-10-16T09:48:12;9.23;;;2.50;;
13238;SDS011;6686;51.292;4.166;2022-10-16T09:51:02;5.20;;;2.40;;
13238;SDS011;6686;51.292;4.166;2022-10-16T09:53:44;4.57;;;2.37;;
13238;SDS011;6686;51.292;4.166;2022-10-16T09:56:31;5.97;;;2.53;;
13238;SDS011;6686;51.292;4.166;2022-10-16T09:59:19;7.70;;;2.53;;
13238;SDS011;6686;51.292;4.166;2022-10-16T10:02:04;6.10;;;2.20;;
13238;SDS011;6686;51.292;4.166;2022-10-16T10:04:51;10.17;;;2.50;;
13238;SDS011;6686;51.292;4.166;2022-10-16T10:07:38;5.70;;;2.30;;
13238;SDS011;6686;51.292;4.166;2022-10-16T10:10:25;7.90;;;2.73;;
13238;SDS011;6686;51.292;4.166;2022-10-16T10:13:18;8.47;;;2.60;;
13238;SDS011;6686;51.292;4.166;2022-10-16T10:16:05;10.70;;;3.00;;
13238;SDS011;6686;51.292;4.166;2022-10-16T10:18:57;6.97;;;2.70;;
13238;SDS011;6686;51.292;4.166;2022-10-16T10:21:37;8.23;;;3.17;;
13238;SDS011;6686;51.292;4.166;2022-10-16T10:24:23;7.72;;;2.78;;
13238;SDS011;6686;51.292;4.166;2022-10-16T10:27:14;5.28;;;2.35;;
13238;SDS011;6686;51.292;4.166;2022-10-16T10:30:01;9.33;;;3.40;;
13238;SDS011;6686;51.292;4.166;2022-10-16T10:32:53;6.27;;;3.03;;
13238;SDS011;6686;51.292;4.166;2022-10-16T10:38:42;14.23;;;7.13;;
13238;SDS011;6686;51.292;4.166;2022-10-16T10:44:26;10.30;;;3.67;;
13238;SDS011;6686;51.292;4.166;2022-10-16T10:47:17;8.70;;;4.50;;
13238;SDS011;6686;51.292;4.166;2022-10-16T10:50:16;9.10;;;3.60;;
13238;SDS011;6686;51.292;4.166;2022-10-16T10:53:04;9.40;;;2.93;;
13238;SDS011;6686;51.292;4.166;2022-10-16T10:58:44;10.87;;;2.70;;
13238;SDS011;6686;51.292;4.166;2022-10-16T11:01:48;7.30;;;2.80;;
13238;SDS011;6686;51.292;4.166;2022-10-16T11:07:30;7.60;;;2.50;;
13238;SDS011;6686;51.292;4.166;2022-10-16T11:10:21;11.87;;;2.97;;
13238;SDS011;6686;51.292;4.166;2022-10-16T11:13:17;8.40;;;2.85;;
13238;SDS011;6686;51.292;4.166;2022-10-16T11:16:18;6.70;;;2.20;;
13238;SDS011;6686;51.292;4.166;2022-10-16T11:23:06;11.30;;;2.73;;
13238;SDS011;6686;51.292;4.166;2022-10-16T11:28:16;7.68;;;2.50;;
13238;SDS011;6686;51.292;4.166;2022-10-16T11:31:21;6.27;;;2.43;;
13238;SDS011;6686;51.292;4.166;2022-10-16T11:37:14;8.70;;;2.00;;
13238;SDS011;6686;51.292;4.166;2022-10-16T11:40:03;7.20;;;1.80;;
13238;SDS011;6686;51.292;4.166;2022-10-16T11:42:50;6.68;;;2.35;;
13238;SDS011;6686;51.292;4.166;2022-10-16T11:45:36;7.23;;;2.00;;
13238;SDS011;6686;51.292;4.166;2022-10-16T11:48:41;8.27;;;2.60;;
13238;SDS011;6686;51.292;4.166;2022-10-16T11:51:36;8.70;;;2.27;;
13238;SDS011;6686;51.292;4.166;2022-10-16T11:54:24;4.87;;;2.37;;
13238;SDS011;6686;51.292;4.166;2022-10-16T11:57:18;6.07;;;1.70;;
13238;SDS011;6686;51.292;4.166;2022-10-16T12:03:00;8.07;;;2.37;;
13238;SDS011;6686;51.292;4.166;2022-10-16T12:05:52;11.87;;;2.07;;
13238;SDS011;6686;51.292;4.166;2022-10-16T12:08:54;8.50;;;3.57;;
13238;SDS011;6686;51.292;4.166;2022-10-16T12:11:40;6.50;;;2.33;;
13238;SDS011;6686;51.292;4.166;2022-10-16T12:23:02;6.50;;;1.90;;
13238;SDS011;6686;51.292;4.166;2022-10-16T12:25:53;8.27;;;1.93;;
13238;SDS011;6686;51.292;4.166;2022-10-16T12:28:34;10.47;;;3.53;;
13238;SDS011;6686;51.292;4.166;2022-10-16T12:31:16;9.23;;;1.73;;
13238;SDS011;6686;51.292;4.166;2022-10-16T12:34:03;4.37;;;1.97;;
13238;SDS011;6686;51.292;4.166;2022-10-16T12:36:48;5.33;;;1.90;;
13238;SDS011;6686;51.292;4.166;2022-10-16T12:39:34;4.87;;;1.87;;
13238;SDS011;6686;51.292;4.166;2022-10-16T12:45:28;6.97;;;1.80;;
13238;SDS011;6686;51.292;4.166;2022-10-16T12:48:20;3.63;;;1.93;;
13238;SDS011;6686;51.292;4.166;2022-10-16T12:51:12;8.07;;;1.93;;
13238;SDS011;6686;51.292;4.166;2022-10-16T13:12:02;9.80;;;2.33;;
13238;SDS011;6686;51.292;4.166;2022-10-16T13:15:02;6.90;;;2.20;;
13238;SDS011;6686;51.292;4.166;2022-10-16T13:17:57;3.53;;;1.57;;
13238;SDS011;6686;51.292;4.166;2022-10-16T13:23:48;4.25;;;1.62;;
13238;SDS011;6686;51.292;4.166;2022-10-16T13:29:22;5.07;;;1.83;;
13238;SDS011;6686;51.292;4.166;2022-10-16T13:32:09;4.87;;;1.70;;
13238;SDS011;6686;51.292;4.166;2022-10-16T13:34:54;6.77;;;1.73;;
13238;SDS011;6686;51.292;4.166;2022-10-16T13:37:40;4.53;;;2.10;;
13238;SDS011;6686;51.292;4.166;2022-10-16T13:40:26;5.37;;;1.83;;
13238;SDS011;6686;51.292;4.166;2022-10-16T13:43:11;3.10;;;1.40;;
13238;SDS011;6686;51.292;4.166;2022-10-16T13:46:10;5.37;;;1.77;;
13238;SDS011;6686;51.292;4.166;2022-10-16T13:51:54;2.83;;;1.77;;
13238;SDS011;6686;51.292;4.166;2022-10-16T13:54:39;5.03;;;1.93;;
13238;SDS011;6686;51.292;4.166;2022-10-16T13:57:25;3.60;;;1.87;;
13238;SDS011;6686;51.292;4.166;2022-10-16T14:00:22;7.73;;;2.17;;
13238;SDS011;6686;51.292;4.166;2022-10-16T14:03:04;5.95;;;1.90;;
13238;SDS011;6686;51.292;4.166;2022-10-16T14:05:53;5.73;;;1.97;;
13238;SDS011;6686;51.292;4.166;2022-10-16T14:08:40;4.13;;;1.70;;
13238;SDS011;6686;51.292;4.166;2022-10-16T14:11:24;6.53;;;2.43;;
13238;SDS011;6686;51.292;4.166;2022-10-16T14:14:10;3.57;;;1.70;;
13238;SDS011;6686;51.292;4.166;2022-10-16T14:16:55;4.03;;;2.00;;
13238;SDS011;6686;51.292;4.166;2022-10-16T14:19:44;3.57;;;1.80;;
13238;SDS011;6686;51.292;4.166;2022-10-16T14:22:46;3.43;;;1.60;;
13238;SDS011;6686;51.292;4.166;2022-10-16T14:31:17;4.07;;;1.70;;
13238;SDS011;6686;51.292;4.166;2022-10-16T14:33:48;2.93;;;1.40;;
13238;SDS011;6686;51.292;4.166;2022-10-16T14:36:34;4.47;;;1.70;;
13238;SDS011;6686;51.292;4.166;2022-10-16T14:39:20;2.87;;;1.60;;
13238;SDS011;6686;51.292;4.166;2022-10-16T14:42:16;3.93;;;1.43;;
13238;SDS011;6686;51.292;4.166;2022-10-16T14:45:07;3.57;;;1.50;;
13238;SDS011;6686;51.292;4.166;2022-10-16T14:47:51;3.10;;;1.80;;
13238;SDS011;6686;51.292;4.166;2022-10-16T14:50:36;6.13;;;2.10;;
13238;SDS011;6686;51.292;4.166;2022-10-16T14:53:22;6.73;;;1.70;;
13238;SDS011;6686;51.292;4.166;2022-10-16T14:56:09;3.30;;;1.80;;
13238;SDS011;6686;51.292;4.166;2022-10-16T14:58:54;3.33;;;1.37;;
13238;SDS011;6686;51.292;4.166;2022-10-16T15:01:40;5.73;;;1.73;;
13238;SDS011;6686;51.292;4.166;2022-10-16T15:04:26;3.13;;;1.40;;
13238;SDS011;6686;51.292;4.166;2022-10-16T15:07:12;2.67;;;1.60;;
13238;SDS011;6686;51.292;4.166;2022-10-16T15:09:58;2.90;;;1.27;;
13238;SDS011;6686;51.292;4.166;2022-10-16T15:12:44;3.83;;;1.40;;
13238;SDS011;6686;51.292;4.166;2022-10-16T15:15:41;4.70;;;1.50;;
13238;SDS011;6686;51.292;4.166;2022-10-16T15:18:31;2.93;;;1.30;;
13238;SDS011;6686;51.292;4.166;2022-10-16T15:21:35;3.75;;;1.42;;
13238;SDS011;6686;51.292;4.166;2022-10-16T15:24:12;4.90;;;1.40;;
13238;SDS011;6686;51.292;4.166;2022-10-16T15:26:57;2.47;;;1.27;;
13238;SDS011;6686;51.292;4.166;2022-10-16T15:29:43;3.47;;;1.90;;
13238;SDS011;6686;51.292;4.166;2022-10-16T15:32:29;6.57;;;1.50;;
13238;SDS011;6686;51.292;4.166;2022-10-16T15:35:14;2.67;;;1.60;;
13238;SDS011;6686;51.292;4.166;2022-10-16T15:38:03;2.73;;;1.40;;
13238;SDS011;6686;51.292;4.166;2022-10-16T15:40:49;4.37;;;1.60;;
13238;SDS011;6686;51.292;4.166;2022-10-16T15:43:35;2.30;;;1.60;;
13238;SDS011;6686;51.292;4.166;2022-10-16T15:46:22;2.40;;;1.30;;
13238;SDS011;6686;51.292;4.166;2022-10-16T15:49:08;2.77;;;1.33;;
13238;SDS011;6686;51.292;4.166;2022-10-16T15:51:54;2.90;;;1.60;;
13238;SDS011;6686;51.292;4.166;2022-10-16T15:54:39;4.57;;;1.90;;
13238;SDS011;6686;51.292;4.166;2022-10-16T15:57:27;5.27;;;1.90;;
13238;SDS011;6686;51.292;4.166;2022-10-16T16:00:15;4.50;;;1.80;;
13238;SDS011;6686;51.292;4.166;2022-10-16T16:03:00;2.40;;;1.83;;
13238;SDS011;6686;51.292;4.166;2022-10-16T16:05:46;2.67;;;1.70;;
13238;SDS011;6686;51.292;4.166;2022-10-16T16:08:32;2.03;;;1.30;;
13238;SDS011;6686;51.292;4.166;2022-10-16T16:11:18;4.10;;;1.60;;
13238;SDS011;6686;51.292;4.166;2022-10-16T16:14:04;3.33;;;1.87;;
13238;SDS011;6686;51.292;4.166;2022-10-16T16:16:52;4.35;;;1.80;;
13238;SDS011;6686;51.292;4.166;2022-10-16T16:19:38;2.10;;;1.80;;
13238;SDS011;6686;51.292;4.166;2022-10-16T16:22:24;3.90;;;2.10;;
13238;SDS011;6686;51.292;4.166;2022-10-16T16:25:10;2.73;;;2.20;;
13238;SDS011;6686;51.292;4.166;2022-10-16T16:27:56;4.23;;;2.80;;
13238;SDS011;6686;51.292;4.166;2022-10-16T16:30:42;3.40;;;2.30;;
13238;SDS011;6686;51.292;4.166;2022-10-16T16:33:28;4.67;;;2.40;;
13238;SDS011;6686;51.292;4.166;2022-10-16T16:36:14;3.58;;;2.70;;
13238;SDS011;6686;51.292;4.166;2022-10-16T16:39:00;3.23;;;2.53;;
13238;SDS011;6686;51.292;4.166;2022-10-16T16:41:46;4.93;;;2.43;;
13238;SDS011;6686;51.292;4.166;2022-10-16T16:44:32;7.03;;;3.50;;
13238;SDS011;6686;51.292;4.166;2022-10-16T16:47:18;8.10;;;3.40;;
13238;SDS011;6686;51.292;4.166;2022-10-16T16:50:04;7.73;;;3.93;;
13238;SDS011;6686;51.292;4.166;2022-10-16T16:52:50;6.37;;;3.80;;
13238;SDS011;6686;51.292;4.166;2022-10-16T16:55:36;7.35;;;4.80;;
13238;SDS011;6686;51.292;4.166;2022-10-16T16:58:22;6.07;;;3.97;;
13238;SDS011;6686;51.292;4.166;2022-10-16T17:01:09;4.37;;;3.13;;
13238;SDS011;6686;51.292;4.166;2022-10-16T17:03:54;6.43;;;2.83;;
13238;SDS011;6686;51.292;4.166;2022-10-16T17:06:40;4.07;;;2.00;;
13238;SDS011;6686;51.292;4.166;2022-10-16T17:09:26;5.23;;;2.30;;
13238;SDS011;6686;51.292;4.166;2022-10-16T17:12:11;2.80;;;2.03;;
13238;SDS011;6686;51.292;4.166;2022-10-16T17:14:57;2.90;;;2.00;;
13238;SDS011;6686;51.292;4.166;2022-10-16T17:17:43;3.23;;;1.80;;
13238;SDS011;6686;51.292;4.166;2022-10-16T17:20:29;4.00;;;2.13;;
13238;SDS011;6686;51.292;4.166;2022-10-16T17:23:16;4.57;;;2.20;;
13238;SDS011;6686;51.292;4.166;2022-10-16T17:28:54;3.60;;;2.50;;
13238;SDS011;6686;51.292;4.166;2022-10-16T17:31:39;3.60;;;2.40;;
13238;SDS011;6686;51.292;4.166;2022-10-16T17:34:24;2.93;;;2.20;;
13238;SDS011;6686;51.292;4.166;2022-10-16T17:37:10;4.20;;;2.50;;
13238;SDS011;6686;51.292;4.166;2022-10-16T17:39:56;4.47;;;2.60;;
13238;SDS011;6686;51.292;4.166;2022-10-16T17:42:42;2.73;;;2.30;;
13238;SDS011;6686;51.292;4.166;2022-10-16T17:45:28;6.00;;;2.40;;
13238;SDS011;6686;51.292;4.166;2022-10-16T17:48:13;6.33;;;2.60;;
13238;SDS011;6686;51.292;4.166;2022-10-16T17:51:02;6.43;;;2.40;;
13238;SDS011;6686;51.292;4.166;2022-10-16T17:53:49;4.37;;;2.20;;
13238;SDS011;6686;51.292;4.166;2022-10-16T17:56:34;3.83;;;2.20;;
13238;SDS011;6686;51.292;4.166;2022-10-16T17:59:20;6.87;;;2.40;;
13238;SDS011;6686;51.292;4.166;2022-10-16T18:02:06;7.17;;;2.93;;
13238;SDS011;6686;51.292;4.166;2022-10-16T18:04:52;7.57;;;3.12;;
13238;SDS011;6686;51.292;4.166;2022-10-16T18:07:37;4.70;;;2.60;;
13238;SDS011;6686;51.292;4.166;2022-10-16T18:10:23;4.40;;;2.50;;
13238;SDS011;6686;51.292;4.166;2022-10-16T18:13:09;3.87;;;2.30;;
13238;SDS011;6686;51.292;4.166;2022-10-16T18:16:02;5.70;;;2.53;;
13238;SDS011;6686;51.292;4.166;2022-10-16T18:18:44;4.13;;;2.20;;
13238;SDS011;6686;51.292;4.166;2022-10-16T18:21:29;5.97;;;2.67;;
13238;SDS011;6686;51.292;4.166;2022-10-16T18:24:16;6.37;;;2.50;;
13238;SDS011;6686;51.292;4.166;2022-10-16T18:27:01;3.53;;;2.20;;
13238;SDS011;6686;51.292;4.166;2022-10-16T18:29:47;4.23;;;2.20;;
13238;SDS011;6686;51.292;4.166;2022-10-16T18:32:33;3.95;;;2.50;;
13238;SDS011;6686;51.292;4.166;2022-10-16T18:35:19;3.63;;;2.37;;
13238;SDS011;6686;51.292;4.166;2022-10-16T18:38:05;2.70;;;2.23;;
13238;SDS011;6686;51.292;4.166;2022-10-16T18:40:51;5.47;;;3.10;;
13238;SDS011;6686;51.292;4.166;2022-10-16T18:43:38;7.00;;;2.67;;
13238;SDS011;6686;51.292;4.166;2022-10-16T18:46:24;4.73;;;2.67;;